PWSweather.com
Personal Weather Stations
Station Observations
KCTHAMDEN
Dunbar Hill, Hamden, CT 06514

Dunbar HillHamden, CT 06514

Lat: 41.365437, Lon: -72.956532

Elevation: 200

Station Type: Davis Vantage Pro2+

www.hamdenweather.com

High Low Average
Temperature 77.3°F25.2°C 65.2°F18.4°C 70.4°F21.3°C
Dew Point 69.1°F20.6°C 60.6°F15.9°C 64.8°F18.2°C
Winds 5.5 mph 8.9 kmh Calm Calm 1.0 mph SE1.6 kmh SE
Wind Gusts 12.0 mph19.3 kmh -- 3.0 mph4.8 kmh
Humidity 93% 67% 83%
Pressure 30.16 in1021.3 mb 30.09 in1019.0 mb -
Precipitation 0.00 in0.0 mm - -
Hour Temp Dew Point Humidity Winds Wind Gusts Pressure Precip Precip Rate Daily Precip Total
12:00 AM 66.4°F19.1°C 60.7°F15.9°C 82% 1.9 mph WSW3.1 kmh WSW 5.0 mph8.0 kmh 30.11 in1019.6 mb - 0.00 in0.0 mm 0.00 in0.0 mm
12:15 AM 66.5°F19.2°C 60.8°F16.0°C 82% 0.5 mph WSW0.8 kmh WSW 2.0 mph3.2 kmh 30.10 in1019.3 mb - 0.00 in0.0 mm 0.00 in0.0 mm
12:30 AM 66.5°F19.2°C 60.5°F15.8°C 81% 1.5 mph N2.4 kmh N 3.0 mph4.8 kmh 30.10 in1019.3 mb - 0.00 in0.0 mm 0.00 in0.0 mm
12:45 AM 66.5°F19.2°C 60.8°F16.0°C 82% 2.9 mph WSW4.7 kmh WSW 7.0 mph11.3 kmh 30.10 in1019.3 mb - 0.00 in0.0 mm 0.00 in0.0 mm
01:00 AM 66.5°F19.2°C 60.8°F16.0°C 82% 2.7 mph NNE4.3 kmh NNE 4.0 mph6.4 kmh 30.10 in1019.3 mb - 0.00 in0.0 mm 0.00 in0.0 mm
01:15 AM 66.4°F19.1°C 60.7°F15.9°C 82% Calm Calm -- 30.10 in1019.3 mb - 0.00 in0.0 mm 0.00 in0.0 mm
01:30 AM 66.3°F19.1°C 60.6°F15.9°C 82% 2.7 mph WSW4.3 kmh WSW 8.0 mph12.9 kmh 30.10 in1019.3 mb - 0.00 in0.0 mm 0.00 in0.0 mm
01:45 AM 66.4°F19.1°C 60.7°F15.9°C 82% 1.4 mph WSW2.3 kmh WSW 3.0 mph4.8 kmh 30.10 in1019.3 mb - 0.00 in0.0 mm 0.00 in0.0 mm
02:00 AM 66.4°F19.1°C 61.1°F16.2°C 83% 1.3 mph N2.1 kmh N 2.0 mph3.2 kmh 30.10 in1019.3 mb - 0.00 in0.0 mm 0.00 in0.0 mm
02:15 AM 66.3°F19.1°C 61.0°F16.1°C 83% 1.8 mph WSW2.9 kmh WSW 3.0 mph4.8 kmh 30.09 in1019.0 mb - 0.00 in0.0 mm 0.00 in0.0 mm
02:30 AM 66.1°F18.9°C 61.1°F16.2°C 84% 0.1 mph W0.2 kmh W -- 30.10 in1019.3 mb - 0.00 in0.0 mm 0.00 in0.0 mm
02:45 AM 66.0°F18.9°C 61.0°F16.1°C 84% 1.4 mph N2.3 kmh N 4.0 mph6.4 kmh 30.09 in1019.0 mb - 0.00 in0.0 mm 0.00 in0.0 mm
03:00 AM 65.9°F18.8°C 60.9°F16.1°C 84% 0.9 mph E1.4 kmh E 4.0 mph6.4 kmh 30.09 in1019.0 mb - 0.00 in0.0 mm 0.00 in0.0 mm
03:15 AM 65.7°F18.7°C 60.7°F15.9°C 84% 1.6 mph N2.6 kmh N 3.0 mph4.8 kmh 30.09 in1019.0 mb - 0.00 in0.0 mm 0.00 in0.0 mm
03:30 AM 65.6°F18.7°C 60.9°F16.1°C 85% 0.8 mph WSW1.3 kmh WSW 3.0 mph4.8 kmh 30.09 in1019.0 mb - 0.00 in0.0 mm 0.00 in0.0 mm
03:45 AM 65.4°F18.6°C 61.1°F16.2°C 86% 0.7 mph W1.1 kmh W 2.0 mph3.2 kmh 30.09 in1019.0 mb - 0.00 in0.0 mm 0.00 in0.0 mm
04:00 AM 65.4°F18.6°C 61.1°F16.2°C 86% 0.3 mph WSW0.5 kmh WSW 3.0 mph4.8 kmh 30.09 in1019.0 mb - 0.00 in0.0 mm 0.00 in0.0 mm
04:15 AM 65.4°F18.6°C 61.1°F16.2°C 86% Calm Calm 3.0 mph4.8 kmh 30.10 in1019.3 mb - 0.00 in0.0 mm 0.00 in0.0 mm
04:30 AM 65.5°F18.6°C 61.2°F16.2°C 86% 0.2 mph WSW0.3 kmh WSW 1.0 mph1.6 kmh 30.10 in1019.3 mb - 0.00 in0.0 mm 0.00 in0.0 mm
04:45 AM 65.6°F18.7°C 61.6°F16.4°C 87% 2.5 mph N4.0 kmh N 5.0 mph8.0 kmh 30.10 in1019.3 mb - 0.00 in0.0 mm 0.00 in0.0 mm
05:00 AM 65.5°F18.6°C 61.9°F16.6°C 88% 2.2 mph WSW3.5 kmh WSW 4.0 mph6.4 kmh 30.10 in1019.3 mb - 0.00 in0.0 mm 0.00 in0.0 mm
05:15 AM 65.3°F18.5°C 62.0°F16.7°C 89% 0.2 mph WSW0.3 kmh WSW -- 30.10 in1019.3 mb - 0.00 in0.0 mm 0.00 in0.0 mm
05:30 AM 65.2°F18.4°C 61.9°F16.6°C 89% 0.2 mph NNE0.3 kmh NNE 1.0 mph1.6 kmh 30.11 in1019.6 mb - 0.00 in0.0 mm 0.00 in0.0 mm
05:45 AM 65.2°F18.4°C 61.9°F16.6°C 89% 0.1 mph N0.2 kmh N 1.0 mph1.6 kmh 30.12 in1020.0 mb - 0.00 in0.0 mm 0.00 in0.0 mm
06:00 AM 65.2°F18.4°C 61.9°F16.6°C 89% 0.7 mph N1.1 kmh N -- 30.12 in1020.0 mb - 0.00 in0.0 mm 0.00 in0.0 mm
06:15 AM 65.3°F18.5°C 62.0°F16.7°C 89% 0.5 mph WSW0.8 kmh WSW -- 30.13 in1020.3 mb - 0.00 in0.0 mm 0.00 in0.0 mm
06:30 AM 65.3°F18.5°C 62.0°F16.7°C 89% 0.1 mph NNE0.2 kmh NNE -- 30.13 in1020.3 mb - 0.00 in0.0 mm 0.00 in0.0 mm
06:45 AM 65.4°F18.6°C 62.1°F16.7°C 89% Calm Calm -- 30.13 in1020.3 mb - 0.00 in0.0 mm 0.00 in0.0 mm
07:00 AM 65.6°F18.7°C 61.9°F16.6°C 88% 1.3 mph NNE2.1 kmh NNE 2.0 mph3.2 kmh 30.13 in1020.3 mb - 0.00 in0.0 mm 0.00 in0.0 mm
07:15 AM 66.0°F18.9°C 62.6°F17.0°C 89% 0.9 mph WSW1.4 kmh WSW 1.0 mph1.6 kmh 30.14 in1020.7 mb - 0.00 in0.0 mm 0.00 in0.0 mm
07:30 AM 66.2°F19.0°C 62.5°F16.9°C 88% 2.5 mph WSW4.0 kmh WSW 4.0 mph6.4 kmh 30.14 in1020.7 mb - 0.00 in0.0 mm 0.00 in0.0 mm
07:45 AM 66.4°F19.1°C 62.4°F16.9°C 87% 0.3 mph WSW0.5 kmh WSW 2.0 mph3.2 kmh 30.14 in1020.7 mb - 0.00 in0.0 mm 0.00 in0.0 mm
08:00 AM 67.0°F19.4°C 63.3°F17.4°C 88% 2.4 mph WSW3.9 kmh WSW 9.0 mph14.5 kmh 30.14 in1020.7 mb - 0.00 in0.0 mm 0.00 in0.0 mm
08:15 AM 67.9°F19.9°C 63.3°F17.4°C 85% 1.0 mph ENE1.6 kmh ENE 1.0 mph1.6 kmh 30.14 in1020.7 mb - 0.00 in0.0 mm 0.00 in0.0 mm
08:30 AM 68.8°F20.4°C 64.1°F17.8°C 85% 2.5 mph NNE4.0 kmh NNE 4.0 mph6.4 kmh 30.15 in1021.0 mb - 0.00 in0.0 mm 0.00 in0.0 mm
08:45 AM 69.1°F20.6°C 63.7°F17.6°C 83% 4.0 mph W6.4 kmh W 10.0 mph16.1 kmh 30.15 in1021.0 mb - 0.00 in0.0 mm 0.00 in0.0 mm
09:00 AM 70.0°F21.1°C 64.2°F17.9°C 82% 2.7 mph N4.3 kmh N 10.0 mph16.1 kmh 30.15 in1021.0 mb - 0.00 in0.0 mm 0.00 in0.0 mm
09:15 AM 70.9°F21.6°C 64.1°F17.8°C 79% 2.3 mph SE3.7 kmh SE 8.0 mph12.9 kmh 30.15 in1021.0 mb - 0.00 in0.0 mm 0.00 in0.0 mm
09:30 AM 71.4°F21.9°C 64.5°F18.1°C 79% 2.7 mph NE4.3 kmh NE 6.0 mph9.7 kmh 30.15 in1021.0 mb - 0.00 in0.0 mm 0.00 in0.0 mm
09:45 AM 71.0°F21.7°C 64.2°F17.9°C 79% 3.5 mph WNW5.6 kmh WNW 11.0 mph17.7 kmh 30.15 in1021.0 mb - 0.00 in0.0 mm 0.00 in0.0 mm
10:00 AM 72.1°F22.3°C 64.1°F17.8°C 76% 5.5 mph WSW8.9 kmh WSW 11.0 mph17.7 kmh 30.15 in1021.0 mb - 0.00 in0.0 mm 0.00 in0.0 mm
10:15 AM 72.2°F22.3°C 64.6°F18.1°C 77% 4.6 mph ESE7.4 kmh ESE 12.0 mph19.3 kmh 30.15 in1021.0 mb - 0.00 in0.0 mm 0.00 in0.0 mm
10:30 AM 72.3°F22.4°C 64.7°F18.2°C 77% 2.4 mph ESE3.9 kmh ESE 3.0 mph4.8 kmh 30.15 in1021.0 mb - 0.00 in0.0 mm 0.00 in0.0 mm
10:45 AM 72.7°F22.6°C 64.7°F18.2°C 76% 3.4 mph E5.5 kmh E 11.0 mph17.7 kmh 30.15 in1021.0 mb - 0.00 in0.0 mm 0.00 in0.0 mm
11:00 AM 73.7°F23.2°C 66.5°F19.2°C 78% 1.6 mph NE2.6 kmh NE 5.0 mph8.0 kmh 30.14 in1020.7 mb - 0.00 in0.0 mm 0.00 in0.0 mm
11:15 AM 74.8°F23.8°C 66.0°F18.9°C 74% 3.6 mph NNE5.8 kmh NNE 7.0 mph11.3 kmh 30.14 in1020.7 mb - 0.00 in0.0 mm 0.00 in0.0 mm
11:30 AM 75.3°F24.1°C 66.1°F18.9°C 73% 2.6 mph S4.2 kmh S 8.0 mph12.9 kmh 30.14 in1020.7 mb - 0.00 in0.0 mm 0.00 in0.0 mm
11:45 AM 74.7°F23.7°C 65.9°F18.8°C 74% 4.8 mph WSW7.7 kmh WSW 12.0 mph19.3 kmh 30.14 in1020.7 mb - 0.00 in0.0 mm 0.00 in0.0 mm
12:00 PM 74.9°F23.8°C 66.1°F18.9°C 74% 0.4 mph NE0.6 kmh NE 3.0 mph4.8 kmh 30.14 in1020.7 mb - 0.00 in0.0 mm 0.00 in0.0 mm
12:15 PM 74.4°F23.6°C 64.8°F18.2°C 72% 3.5 mph SW5.6 kmh SW 4.0 mph6.4 kmh 30.14 in1020.7 mb - 0.00 in0.0 mm 0.00 in0.0 mm
12:30 PM 74.3°F23.5°C 65.5°F18.6°C 74% 1.5 mph E2.4 kmh E 4.0 mph6.4 kmh 30.13 in1020.3 mb - 0.00 in0.0 mm 0.00 in0.0 mm
12:45 PM 75.3°F24.1°C 66.4°F19.1°C 74% 2.5 mph N4.0 kmh N 7.0 mph11.3 kmh 30.13 in1020.3 mb - 0.00 in0.0 mm 0.00 in0.0 mm
01:00 PM 75.7°F24.3°C 65.6°F18.7°C 71% 2.8 mph NE4.5 kmh NE 4.0 mph6.4 kmh 30.13 in1020.3 mb - 0.00 in0.0 mm 0.00 in0.0 mm
01:15 PM 75.7°F24.3°C 65.7°F18.7°C 71% 1.4 mph ENE2.3 kmh ENE 5.0 mph8.0 kmh 30.13 in1020.3 mb - 0.00 in0.0 mm 0.00 in0.0 mm
01:30 PM 75.9°F24.4°C 65.4°F18.6°C 70% 1.2 mph ESE1.9 kmh ESE 3.0 mph4.8 kmh 30.13 in1020.3 mb - 0.00 in0.0 mm 0.00 in0.0 mm
01:45 PM 76.0°F24.4°C 65.1°F18.4°C 69% 2.3 mph WSW3.7 kmh WSW 3.0 mph4.8 kmh 30.13 in1020.3 mb - 0.00 in0.0 mm 0.00 in0.0 mm
02:00 PM 76.0°F24.4°C 64.7°F18.2°C 68% 1.9 mph NE3.1 kmh NE 4.0 mph6.4 kmh 30.14 in1020.7 mb - 0.00 in0.0 mm 0.00 in0.0 mm
02:15 PM 76.7°F24.8°C 67.7°F19.8°C 74% 0.3 mph NE0.5 kmh NE 2.0 mph3.2 kmh 30.13 in1020.3 mb - 0.00 in0.0 mm 0.00 in0.0 mm
02:30 PM 77.3°F25.2°C 65.9°F18.8°C 68% 1.7 mph NNE2.7 kmh NNE 3.0 mph4.8 kmh 30.14 in1020.7 mb - 0.00 in0.0 mm 0.00 in0.0 mm
02:45 PM 77.1°F25.1°C 65.3°F18.5°C 67% 2.4 mph NE3.9 kmh NE 4.0 mph6.4 kmh 30.13 in1020.3 mb - 0.00 in0.0 mm 0.00 in0.0 mm
03:00 PM 76.8°F24.9°C 65.4°F18.6°C 68% Calm Calm -- 30.13 in1020.3 mb - 0.00 in0.0 mm 0.00 in0.0 mm
03:15 PM 76.8°F24.9°C 65.9°F18.8°C 69% 2.0 mph E3.2 kmh E 3.0 mph4.8 kmh 30.13 in1020.3 mb - 0.00 in0.0 mm 0.00 in0.0 mm
03:30 PM 77.1°F25.1°C 68.9°F20.5°C 76% 1.5 mph ESE2.4 kmh ESE 3.0 mph4.8 kmh 30.13 in1020.3 mb - 0.00 in0.0 mm 0.00 in0.0 mm
03:45 PM 76.7°F24.8°C 67.0°F19.4°C 72% Calm Calm 1.0 mph1.6 kmh 30.13 in1020.3 mb - 0.00 in0.0 mm 0.00 in0.0 mm
04:00 PM 76.5°F24.7°C 69.1°F20.6°C 78% Calm Calm -- 30.13 in1020.3 mb - 0.00 in0.0 mm 0.00 in0.0 mm
04:15 PM 75.9°F24.4°C 68.5°F20.3°C 78% Calm Calm -- 30.12 in1020.0 mb - 0.00 in0.0 mm 0.00 in0.0 mm
04:30 PM 75.0°F23.9°C 68.0°F20.0°C 79% Calm Calm -- 30.12 in1020.0 mb - 0.00 in0.0 mm 0.00 in0.0 mm
04:45 PM 74.3°F23.5°C 68.4°F20.2°C 82% Calm Calm -- 30.12 in1020.0 mb - 0.00 in0.0 mm 0.00 in0.0 mm
05:00 PM 73.8°F23.2°C 68.7°F20.4°C 84% Calm Calm -- 30.12 in1020.0 mb - 0.00 in0.0 mm 0.00 in0.0 mm
05:15 PM 73.3°F22.9°C 68.2°F20.1°C 84% Calm Calm -- 30.11 in1019.6 mb - 0.00 in0.0 mm 0.00 in0.0 mm
05:30 PM 73.3°F22.9°C 68.8°F20.4°C 86% Calm Calm -- 30.11 in1019.6 mb - 0.00 in0.0 mm 0.00 in0.0 mm
05:45 PM 73.3°F22.9°C 68.8°F20.4°C 86% Calm Calm -- 30.12 in1020.0 mb - 0.00 in0.0 mm 0.00 in0.0 mm
06:00 PM 73.2°F22.9°C 68.4°F20.2°C 85% Calm Calm -- 30.11 in1019.6 mb - 0.00 in0.0 mm 0.00 in0.0 mm
06:15 PM 73.5°F23.1°C 69.0°F20.6°C 86% Calm Calm -- 30.11 in1019.6 mb - 0.00 in0.0 mm 0.00 in0.0 mm
06:30 PM 73.6°F23.1°C 68.5°F20.3°C 84% Calm Calm -- 30.11 in1019.6 mb - 0.00 in0.0 mm 0.00 in0.0 mm
06:45 PM 73.4°F23.0°C 67.9°F19.9°C 83% Calm Calm -- 30.11 in1019.6 mb - 0.00 in0.0 mm 0.00 in0.0 mm
07:00 PM 73.0°F22.8°C 67.9°F19.9°C 84% Calm Calm -- 30.12 in1020.0 mb - 0.00 in0.0 mm 0.00 in0.0 mm
07:15 PM 72.8°F22.7°C 68.0°F20.0°C 85% Calm Calm -- 30.12 in1020.0 mb - 0.00 in0.0 mm 0.00 in0.0 mm
07:30 PM 72.4°F22.4°C 68.0°F20.0°C 86% Calm Calm -- 30.12 in1020.0 mb - 0.00 in0.0 mm 0.00 in0.0 mm
07:45 PM 71.9°F22.2°C 67.5°F19.7°C 86% Calm Calm -- 30.13 in1020.3 mb - 0.00 in0.0 mm 0.00 in0.0 mm
08:00 PM 71.3°F21.8°C 67.2°F19.6°C 87% Calm Calm -- 30.13 in1020.3 mb - 0.00 in0.0 mm 0.00 in0.0 mm
08:15 PM 70.9°F21.6°C 67.2°F19.6°C 88% Calm Calm -- 30.14 in1020.7 mb - 0.00 in0.0 mm 0.00 in0.0 mm
08:30 PM 70.5°F21.4°C 67.1°F19.5°C 89% Calm Calm -- 30.14 in1020.7 mb - 0.00 in0.0 mm 0.00 in0.0 mm
08:45 PM 70.2°F21.2°C 67.1°F19.5°C 90% Calm Calm -- 30.15 in1021.0 mb - 0.00 in0.0 mm 0.00 in0.0 mm
09:00 PM 69.9°F21.1°C 67.2°F19.6°C 91% Calm Calm -- 30.15 in1021.0 mb - 0.00 in0.0 mm 0.00 in0.0 mm
09:15 PM 69.6°F20.9°C 66.9°F19.4°C 91% Calm Calm -- 30.15 in1021.0 mb - 0.00 in0.0 mm 0.00 in0.0 mm
09:30 PM 69.4°F20.8°C 67.0°F19.4°C 92% Calm Calm -- 30.15 in1021.0 mb - 0.00 in0.0 mm 0.00 in0.0 mm
09:45 PM 69.2°F20.7°C 66.8°F19.3°C 92% Calm Calm -- 30.15 in1021.0 mb - 0.00 in0.0 mm 0.00 in0.0 mm
10:00 PM 69.0°F20.6°C 66.6°F19.2°C 92% Calm Calm -- 30.15 in1021.0 mb - 0.00 in0.0 mm 0.00 in0.0 mm
10:15 PM 68.9°F20.5°C 66.8°F19.3°C 93% Calm Calm -- 30.16 in1021.3 mb - 0.00 in0.0 mm 0.00 in0.0 mm
10:30 PM 68.8°F20.4°C 66.7°F19.3°C 93% Calm Calm -- 30.16 in1021.3 mb - 0.00 in0.0 mm 0.00 in0.0 mm
10:45 PM 68.7°F20.4°C 66.6°F19.2°C 93% Calm Calm -- 30.15 in1021.0 mb - 0.00 in0.0 mm 0.00 in0.0 mm
11:00 PM 68.5°F20.3°C 66.4°F19.1°C 93% Calm Calm -- 30.15 in1021.0 mb - 0.00 in0.0 mm 0.00 in0.0 mm
11:15 PM 68.3°F20.2°C 66.2°F19.0°C 93% Calm Calm -- 30.15 in1021.0 mb - 0.00 in0.0 mm 0.00 in0.0 mm
11:30 PM 68.0°F20.0°C 65.6°F18.7°C 92% Calm Calm -- 30.16 in1021.3 mb - 0.00 in0.0 mm 0.00 in0.0 mm
11:45 PM 67.8°F19.9°C 65.1°F18.4°C 91% Calm Calm -- 30.16 in1021.3 mb - 0.00 in0.0 mm 0.00 in0.0 mm